White Rock Automatic Weather Reporting System

CWWK · 不列颠哥伦比亚, 加拿大

罗盘
风向 的 风向 160°
风: 6 kt, 2 beaufort

添加一条跑道以查看侧风和逆风信息。

添置 跑道
0 1.000 2.000 3.000 4.000 5.000
FEW 1.300 ft
BKN 4.800 ft
METAR KBLI 280453Z 16006KT 10SM FEW013 BKN048 04/03 A2983 RMK AO2 SLP111 T00440028

METAR White Rock Automatic Weather Reporting System - CWWK

White Rock Automatic Weather Reporting System是,加拿大中的未知。 该领域的国际民航组织标志是CWWK.

这份报告是针对2022年11月27日 20:53, 当地时间在Bellingham International Airport进行的。

机场观察

风向为160°,速度为6 kt。

可见度为10 mi。

有几云在1.300 ft的高度 和 碎云在4.800 ft的高度。 破损或更高的上限为4.800 ft。

温度为4 °C,阵风为-1 °C。 露点为3 °C,相对湿度为93%。 海平面上的气压为29,83 inHg (QNH)。

白天

今天,太阳从07:40升起,在16:18降落。 这适用于White Rock Automatic Weather Reporting System,世界夏令时可能有所不同。 当地时间与世界标准时间之间的时差为-8 小时。 当前,没有夏令时有效。

公司介绍

我们没有关于这个机场的公司信息。

体会

到Vliegles.nl去找飞行课程,跳伞和其他飞行体验。 浏览页面,了解White Rock Automatic Weather Reporting System附近所有可用的活动。 你也可以使用搜索功能来寻找你所在地附近的特定飞行课程、跳伞或其他飞行体验。

乌云

1.300 ft FEW 几云
4.800 ft BKN 碎云

温度 & 天气

温度 4,4 °C
露点 2,8 °C
相对湿度 93%
风寒 -1 °C
Kp-index 5 (0-9)

评论

AO2自动气象站,可确定降水类型
SLP111海平面压力为29,86 inHg (29,86 inHg)
T00440028温度为4,4 °C (39,9 °F),露点为2,8 °C (37,0 °F)

白天

日出
07:38 (9:57)
中午
11:58
日落
16:17

小工具

你想在你的网站上有一个关于White Rock Automatic Weather Reporting System的当前航空天气(METAR)的小部件吗?

显示HTML代码

我们和第三方通过cookies跟踪您在我们网站上的互联网行为。如果你继续,我们认为你同意我们的饼干政策